sensor_id;sensor_type;location;lat;lon;timestamp;pressure;altitude;pressure_sealevel;temperature;humidity
71109;BME280;59614;51.012;-1.648;2023-06-22T00:01:48;101000.59;;;16.25;91.47
71109;BME280;59614;51.012;-1.648;2023-06-22T00:04:13;100994.34;;;16.26;92.46
71109;BME280;59614;51.012;-1.648;2023-06-22T00:06:38;100981.09;;;16.24;91.48
71109;BME280;59614;51.012;-1.648;2023-06-22T00:09:04;100989.94;;;16.25;91.40
71109;BME280;59614;51.012;-1.648;2023-06-22T00:11:29;100989.31;;;16.16;92.21
71109;BME280;59614;51.012;-1.648;2023-06-22T00:13:56;100990.44;;;16.09;91.46
71109;BME280;59614;51.012;-1.648;2023-06-22T00:16:22;100992.66;;;15.93;93.04
71109;BME280;59614;51.012;-1.648;2023-06-22T00:18:47;100997.91;;;15.96;93.18
71109;BME280;59614;51.012;-1.648;2023-06-22T00:21:14;100994.09;;;16.05;92.62
71109;BME280;59614;51.012;-1.648;2023-06-22T00:23:39;101000.19;;;16.09;92.01
71109;BME280;59614;51.012;-1.648;2023-06-22T00:26:04;100990.31;;;16.12;91.64
71109;BME280;59614;51.012;-1.648;2023-06-22T00:28:30;100992.97;;;16.14;91.78
71109;BME280;59614;51.012;-1.648;2023-06-22T00:30:55;100985.66;;;16.20;92.21
71109;BME280;59614;51.012;-1.648;2023-06-22T00:33:21;100985.38;;;16.30;92.73
71109;BME280;59614;51.012;-1.648;2023-06-22T00:35:46;100977.25;;;16.33;93.06
71109;BME280;59614;51.012;-1.648;2023-06-22T00:38:13;100973.78;;;16.31;92.87
71109;BME280;59614;51.012;-1.648;2023-06-22T00:40:38;100982.50;;;16.36;92.89
71109;BME280;59614;51.012;-1.648;2023-06-22T00:43:05;100982.31;;;16.42;93.43
71109;BME280;59614;51.012;-1.648;2023-06-22T00:45:31;100979.50;;;16.47;93.80
71109;BME280;59614;51.012;-1.648;2023-06-22T00:47:57;100973.28;;;16.46;93.42
71109;BME280;59614;51.012;-1.648;2023-06-22T00:50:26;100980.44;;;16.44;93.34
71109;BME280;59614;51.012;-1.648;2023-06-22T00:52:53;100980.56;;;16.41;93.07
71109;BME280;59614;51.012;-1.648;2023-06-22T00:55:22;100981.66;;;16.34;92.93
71109;BME280;59614;51.012;-1.648;2023-06-22T00:57:48;100989.25;;;16.19;92.99
71109;BME280;59614;51.012;-1.648;2023-06-22T01:00:17;100995.38;;;16.21;93.36
71109;BME280;59614;51.012;-1.648;2023-06-22T01:02:45;100993.72;;;16.17;92.34
71109;BME280;59614;51.012;-1.648;2023-06-22T01:05:12;100998.50;;;16.06;92.06
71109;BME280;59614;51.012;-1.648;2023-06-22T01:08:52;100999.34;;;16.08;91.27
71109;BME280;59614;51.012;-1.648;2023-06-22T01:11:07;101001.72;;;15.87;92.20
71109;BME280;59614;51.012;-1.648;2023-06-22T01:13:59;101008.59;;;15.95;92.68
71109;BME280;59614;51.012;-1.648;2023-06-22T01:16:33;101013.09;;;15.93;93.64
71109;BME280;59614;51.012;-1.648;2023-06-22T01:21:55;101014.94;;;15.90;94.04
71109;BME280;59614;51.012;-1.648;2023-06-22T01:24:45;101006.94;;;15.90;93.47
71109;BME280;59614;51.012;-1.648;2023-06-22T01:29:52;101005.44;;;15.80;92.10
71109;BME280;59614;51.012;-1.648;2023-06-22T01:32:28;101003.34;;;15.60;92.09
71109;BME280;59614;51.012;-1.648;2023-06-22T01:34:56;101003.47;;;15.55;91.64
71109;BME280;59614;51.012;-1.648;2023-06-22T01:37:23;101000.78;;;15.24;92.85
71109;BME280;59614;51.012;-1.648;2023-06-22T01:39:49;100998.75;;;15.34;93.26
71109;BME280;59614;51.012;-1.648;2023-06-22T01:42:16;101002.28;;;15.34;93.52
71109;BME280;59614;51.012;-1.648;2023-06-22T01:44:42;101008.53;;;15.32;93.39
71109;BME280;59614;51.012;-1.648;2023-06-22T01:47:08;101009.38;;;15.34;93.49
71109;BME280;59614;51.012;-1.648;2023-06-22T01:49:34;101010.97;;;15.08;94.29
71109;BME280;59614;51.012;-1.648;2023-06-22T01:52:00;101003.44;;;14.89;95.82
71109;BME280;59614;51.012;-1.648;2023-06-22T01:54:25;101022.56;;;14.67;98.08
71109;BME280;59614;51.012;-1.648;2023-06-22T01:56:50;101013.16;;;14.90;97.27
71109;BME280;59614;51.012;-1.648;2023-06-22T01:59:29;101029.41;;;15.14;96.36
71109;BME280;59614;51.012;-1.648;2023-06-22T02:02:02;101025.91;;;15.12;97.06
71109;BME280;59614;51.012;-1.648;2023-06-22T02:04:48;101021.09;;;14.92;97.10
71109;BME280;59614;51.012;-1.648;2023-06-22T02:07:18;101020.34;;;14.87;99.17
71109;BME280;59614;51.012;-1.648;2023-06-22T02:09:47;101026.81;;;15.11;98.07
71109;BME280;59614;51.012;-1.648;2023-06-22T02:12:15;101024.50;;;15.32;96.65
71109;BME280;59614;51.012;-1.648;2023-06-22T02:14:42;101025.34;;;15.34;95.19
71109;BME280;59614;51.012;-1.648;2023-06-22T02:17:09;101031.34;;;15.42;94.51
71109;BME280;59614;51.012;-1.648;2023-06-22T02:19:37;101026.09;;;15.39;93.75
71109;BME280;59614;51.012;-1.648;2023-06-22T02:22:03;101025.91;;;15.45;93.65
71109;BME280;59614;51.012;-1.648;2023-06-22T02:24:29;101024.03;;;15.49;93.13
71109;BME280;59614;51.012;-1.648;2023-06-22T02:26:58;101023.38;;;15.40;92.89
71109;BME280;59614;51.012;-1.648;2023-06-22T02:29:23;101032.22;;;15.42;93.67
71109;BME280;59614;51.012;-1.648;2023-06-22T02:31:49;101030.97;;;15.23;94.31
71109;BME280;59614;51.012;-1.648;2023-06-22T02:34:14;101030.47;;;15.07;96.00
71109;BME280;59614;51.012;-1.648;2023-06-22T02:36:46;101031.66;;;14.95;97.13
71109;BME280;59614;51.012;-1.648;2023-06-22T02:39:23;101022.56;;;15.04;97.94
71109;BME280;59614;51.012;-1.648;2023-06-22T02:41:53;101030.25;;;15.16;95.69
71109;BME280;59614;51.012;-1.648;2023-06-22T02:44:20;101022.38;;;15.11;95.42
71109;BME280;59614;51.012;-1.648;2023-06-22T02:46:47;101015.81;;;14.90;97.93
71109;BME280;59614;51.012;-1.648;2023-06-22T02:49:12;101010.22;;;14.65;100.00
71109;BME280;59614;51.012;-1.648;2023-06-22T02:51:45;101009.41;;;14.97;100.00
71109;BME280;59614;51.012;-1.648;2023-06-22T02:54:10;101004.94;;;15.00;98.71
71109;BME280;59614;51.012;-1.648;2023-06-22T02:56:35;101010.38;;;14.57;100.00
71109;BME280;59614;51.012;-1.648;2023-06-22T02:59:02;101013.59;;;14.32;100.00
71109;BME280;59614;51.012;-1.648;2023-06-22T03:01:28;101012.19;;;14.55;100.00
71109;BME280;59614;51.012;-1.648;2023-06-22T03:03:55;101011.66;;;14.80;100.00
71109;BME280;59614;51.012;-1.648;2023-06-22T03:06:21;101004.22;;;14.94;99.13
71109;BME280;59614;51.012;-1.648;2023-06-22T03:08:59;101004.69;;;15.10;99.24
71109;BME280;59614;51.012;-1.648;2023-06-22T03:11:24;101000.94;;;15.18;97.65
71109;BME280;59614;51.012;-1.648;2023-06-22T03:13:50;100994.66;;;15.20;96.54
71109;BME280;59614;51.012;-1.648;2023-06-22T03:16:17;101004.25;;;15.26;95.43
71109;BME280;59614;51.012;-1.648;2023-06-22T03:18:43;100994.44;;;15.29;94.60
71109;BME280;59614;51.012;-1.648;2023-06-22T03:21:08;100991.91;;;15.25;94.30
71109;BME280;59614;51.012;-1.648;2023-06-22T03:23:34;100999.91;;;15.23;93.84
71109;BME280;59614;51.012;-1.648;2023-06-22T03:25:59;100996.78;;;14.73;95.40
71109;BME280;59614;51.012;-1.648;2023-06-22T03:28:25;100995.22;;;14.23;98.09
71109;BME280;59614;51.012;-1.648;2023-06-22T03:30:50;100995.28;;;14.59;98.33
71109;BME280;59614;51.012;-1.648;2023-06-22T03:33:15;100985.50;;;14.61;96.24
71109;BME280;59614;51.012;-1.648;2023-06-22T03:35:41;100979.28;;;14.62;96.12
71109;BME280;59614;51.012;-1.648;2023-06-22T03:38:07;100976.13;;;14.84;95.16
71109;BME280;59614;51.012;-1.648;2023-06-22T03:40:32;100976.03;;;14.87;94.26
71109;BME280;59614;51.012;-1.648;2023-06-22T03:42:58;100974.44;;;14.80;94.00
71109;BME280;59614;51.012;-1.648;2023-06-22T03:45:23;100977.34;;;14.71;93.43
71109;BME280;59614;51.012;-1.648;2023-06-22T03:47:48;100976.94;;;13.68;98.74
71109;BME280;59614;51.012;-1.648;2023-06-22T03:50:14;100971.69;;;13.65;100.00
71109;BME280;59614;51.012;-1.648;2023-06-22T03:52:40;100972.19;;;14.25;100.00
71109;BME280;59614;51.012;-1.648;2023-06-22T03:55:06;100976.97;;;14.47;97.52
71109;BME280;59614;51.012;-1.648;2023-06-22T03:57:32;100977.56;;;14.60;96.10
71109;BME280;59614;51.012;-1.648;2023-06-22T03:59:57;100980.97;;;14.65;94.83
71109;BME280;59614;51.012;-1.648;2023-06-22T04:02:23;100988.91;;;14.66;93.99
71109;BME280;59614;51.012;-1.648;2023-06-22T04:04:49;100989.19;;;14.56;91.95
71109;BME280;59614;51.012;-1.648;2023-06-22T04:07:14;100990.72;;;14.64;92.64
71109;BME280;59614;51.012;-1.648;2023-06-22T04:09:40;100986.00;;;14.40;92.06
71109;BME280;59614;51.012;-1.648;2023-06-22T04:12:06;100992.91;;;14.47;93.16
71109;BME280;59614;51.012;-1.648;2023-06-22T04:14:32;100995.13;;;14.67;92.89
71109;BME280;59614;51.012;-1.648;2023-06-22T04:16:58;100995.03;;;14.72;92.60
71109;BME280;59614;51.012;-1.648;2023-06-22T04:19:24;101006.31;;;14.80;92.55
71109;BME280;59614;51.012;-1.648;2023-06-22T04:21:50;101000.09;;;14.81;91.35
71109;BME280;59614;51.012;-1.648;2023-06-22T04:24:15;100990.56;;;14.74;92.26
71109;BME280;59614;51.012;-1.648;2023-06-22T04:26:41;100993.94;;;14.79;92.11
71109;BME280;59614;51.012;-1.648;2023-06-22T04:29:12;100995.75;;;14.77;91.59
71109;BME280;59614;51.012;-1.648;2023-06-22T04:31:37;100996.47;;;14.85;92.79
71109;BME280;59614;51.012;-1.648;2023-06-22T04:34:04;101000.84;;;14.86;93.79
71109;BME280;59614;51.012;-1.648;2023-06-22T04:36:37;100993.25;;;15.07;94.01
71109;BME280;59614;51.012;-1.648;2023-06-22T04:39:11;100992.69;;;15.28;93.14
71109;BME280;59614;51.012;-1.648;2023-06-22T04:41:38;100983.53;;;15.39;92.44
71109;BME280;59614;51.012;-1.648;2023-06-22T04:44:10;100986.16;;;15.40;92.03
71109;BME280;59614;51.012;-1.648;2023-06-22T04:46:35;100992.88;;;15.54;92.45
71109;BME280;59614;51.012;-1.648;2023-06-22T04:49:07;100983.34;;;15.45;93.10
71109;BME280;59614;51.012;-1.648;2023-06-22T04:51:40;100986.25;;;15.69;94.12
71109;BME280;59614;51.012;-1.648;2023-06-22T04:54:06;100985.28;;;15.71;93.20
71109;BME280;59614;51.012;-1.648;2023-06-22T04:56:33;100989.97;;;15.95;93.85
71109;BME280;59614;51.012;-1.648;2023-06-22T04:58:58;100986.97;;;16.05;93.74
71109;BME280;59614;51.012;-1.648;2023-06-22T05:01:24;100987.50;;;16.17;94.24
71109;BME280;59614;51.012;-1.648;2023-06-22T05:03:51;100984.72;;;16.21;93.97
71109;BME280;59614;51.012;-1.648;2023-06-22T05:06:21;100986.19;;;16.32;92.91
71109;BME280;59614;51.012;-1.648;2023-06-22T05:08:47;100996.09;;;16.55;92.95
71109;BME280;59614;51.012;-1.648;2023-06-22T05:11:12;100986.44;;;16.23;92.38
71109;BME280;59614;51.012;-1.648;2023-06-22T05:13:37;100998.03;;;15.92;94.76
71109;BME280;59614;51.012;-1.648;2023-06-22T05:16:03;101001.31;;;15.37;96.19
71109;BME280;59614;51.012;-1.648;2023-06-22T05:18:30;100994.31;;;15.66;97.55
71109;BME280;59614;51.012;-1.648;2023-06-22T05:20:55;100990.59;;;16.03;97.41
71109;BME280;59614;51.012;-1.648;2023-06-22T05:23:21;100994.13;;;16.33;95.25
71109;BME280;59614;51.012;-1.648;2023-06-22T05:25:46;101006.31;;;16.41;94.37
71109;BME280;59614;51.012;-1.648;2023-06-22T05:28:11;101006.53;;;16.63;94.54
71109;BME280;59614;51.012;-1.648;2023-06-22T05:30:37;101001.19;;;16.63;96.12
71109;BME280;59614;51.012;-1.648;2023-06-22T05:33:03;101002.81;;;16.67;96.47
71109;BME280;59614;51.012;-1.648;2023-06-22T05:35:28;101006.22;;;16.72;96.07
71109;BME280;59614;51.012;-1.648;2023-06-22T05:37:55;101012.72;;;16.90;95.90
71109;BME280;59614;51.012;-1.648;2023-06-22T05:40:20;101010.28;;;16.56;94.72
71109;BME280;59614;51.012;-1.648;2023-06-22T05:42:46;101020.16;;;16.54;98.13
71109;BME280;59614;51.012;-1.648;2023-06-22T05:45:12;101019.69;;;16.67;95.90
71109;BME280;59614;51.012;-1.648;2023-06-22T05:47:37;101023.44;;;16.62;96.61
71109;BME280;59614;51.012;-1.648;2023-06-22T05:50:03;101028.50;;;16.70;96.29
71109;BME280;59614;51.012;-1.648;2023-06-22T05:52:32;101026.03;;;16.35;95.78
71109;BME280;59614;51.012;-1.648;2023-06-22T05:54:57;101033.31;;;16.58;95.85
71109;BME280;59614;51.012;-1.648;2023-06-22T05:57:23;101040.03;;;16.70;95.60
71109;BME280;59614;51.012;-1.648;2023-06-22T05:59:48;101038.41;;;16.66;94.54
71109;BME280;59614;51.012;-1.648;2023-06-22T06:02:14;101042.22;;;16.86;93.71
71109;BME280;59614;51.012;-1.648;2023-06-22T06:04:39;101035.13;;;16.85;94.62
71109;BME280;59614;51.012;-1.648;2023-06-22T06:07:05;101034.13;;;17.16;93.99
71109;BME280;59614;51.012;-1.648;2023-06-22T06:09:30;101024.69;;;17.32;91.84
71109;BME280;59614;51.012;-1.648;2023-06-22T06:11:56;101025.59;;;17.31;91.18
71109;BME280;59614;51.012;-1.648;2023-06-22T06:14:21;101021.03;;;17.09;92.34
71109;BME280;59614;51.012;-1.648;2023-06-22T06:16:48;101015.03;;;17.28;91.40
71109;BME280;59614;51.012;-1.648;2023-06-22T06:19:14;101012.38;;;17.28;91.95
71109;BME280;59614;51.012;-1.648;2023-06-22T06:21:40;101021.97;;;17.34;90.59
71109;BME280;59614;51.012;-1.648;2023-06-22T06:24:05;101028.97;;;17.36;92.95
71109;BME280;59614;51.012;-1.648;2023-06-22T06:26:31;101030.72;;;17.37;89.64
71109;BME280;59614;51.012;-1.648;2023-06-22T06:28:59;101021.03;;;17.09;90.96
71109;BME280;59614;51.012;-1.648;2023-06-22T06:31:25;101014.75;;;17.61;92.85
71109;BME280;59614;51.012;-1.648;2023-06-22T06:33:54;101009.88;;;17.98;92.19
71109;BME280;59614;51.012;-1.648;2023-06-22T06:36:19;101014.34;;;17.97;89.95
71109;BME280;59614;51.012;-1.648;2023-06-22T06:38:45;101013.50;;;17.71;91.07
71109;BME280;59614;51.012;-1.648;2023-06-22T06:41:13;101005.66;;;17.67;89.98
71109;BME280;59614;51.012;-1.648;2023-06-22T06:43:38;101010.25;;;17.87;90.98
71109;BME280;59614;51.012;-1.648;2023-06-22T06:46:04;101004.91;;;17.87;91.06
71109;BME280;59614;51.012;-1.648;2023-06-22T06:48:29;101004.47;;;18.23;90.47
71109;BME280;59614;51.012;-1.648;2023-06-22T06:50:55;101010.81;;;18.43;88.56
71109;BME280;59614;51.012;-1.648;2023-06-22T06:53:20;101009.81;;;18.45;89.16
71109;BME280;59614;51.012;-1.648;2023-06-22T06:55:46;101011.63;;;18.45;88.91
71109;BME280;59614;51.012;-1.648;2023-06-22T06:58:11;101004.84;;;18.36;87.05
71109;BME280;59614;51.012;-1.648;2023-06-22T07:00:39;101003.59;;;18.23;89.08
71109;BME280;59614;51.012;-1.648;2023-06-22T07:03:04;101010.38;;;18.31;88.93
71109;BME280;59614;51.012;-1.648;2023-06-22T07:05:29;101019.50;;;18.48;87.82
71109;BME280;59614;51.012;-1.648;2023-06-22T07:07:55;101029.47;;;18.20;87.44
71109;BME280;59614;51.012;-1.648;2023-06-22T07:10:20;101025.44;;;18.10;87.75
71109;BME280;59614;51.012;-1.648;2023-06-22T07:12:46;101028.59;;;17.96;88.68
71109;BME280;59614;51.012;-1.648;2023-06-22T07:15:11;101023.75;;;18.08;88.65
71109;BME280;59614;51.012;-1.648;2023-06-22T07:17:38;101019.16;;;18.57;88.13
71109;BME280;59614;51.012;-1.648;2023-06-22T07:20:06;101020.50;;;18.45;87.62
71109;BME280;59614;51.012;-1.648;2023-06-22T07:22:42;101022.53;;;18.83;88.57
71109;BME280;59614;51.012;-1.648;2023-06-22T07:25:08;101021.75;;;19.03;87.16
71109;BME280;59614;51.012;-1.648;2023-06-22T07:27:39;101027.59;;;19.13;85.05
71109;BME280;59614;51.012;-1.648;2023-06-22T07:30:08;101023.72;;;19.20;87.09
71109;BME280;59614;51.012;-1.648;2023-06-22T07:32:34;101027.81;;;19.29;86.88
71109;BME280;59614;51.012;-1.648;2023-06-22T07:34:59;101013.00;;;19.41;85.91
71109;BME280;59614;51.012;-1.648;2023-06-22T07:37:25;101018.44;;;19.39;83.91
71109;BME280;59614;51.012;-1.648;2023-06-22T07:39:52;101015.34;;;19.28;83.13
71109;BME280;59614;51.012;-1.648;2023-06-22T07:42:19;101021.44;;;19.11;85.00
71109;BME280;59614;51.012;-1.648;2023-06-22T07:44:44;101013.56;;;18.86;85.66
71109;BME280;59614;51.012;-1.648;2023-06-22T07:47:10;101015.16;;;19.12;87.96
71109;BME280;59614;51.012;-1.648;2023-06-22T07:49:35;101016.56;;;19.41;85.13
71109;BME280;59614;51.012;-1.648;2023-06-22T07:52:01;101006.59;;;19.24;84.08
71109;BME280;59614;51.012;-1.648;2023-06-22T07:54:27;101011.66;;;19.51;84.66
71109;BME280;59614;51.012;-1.648;2023-06-22T07:56:52;101007.97;;;19.94;81.42
71109;BME280;59614;51.012;-1.648;2023-06-22T07:59:18;101000.75;;;19.96;83.32
71109;BME280;59614;51.012;-1.648;2023-06-22T08:01:43;100996.25;;;20.15;81.11
71109;BME280;59614;51.012;-1.648;2023-06-22T08:04:08;101013.09;;;19.79;80.32
71109;BME280;59614;51.012;-1.648;2023-06-22T08:06:34;101022.47;;;19.48;82.21
71109;BME280;59614;51.012;-1.648;2023-06-22T08:08:59;101020.91;;;19.44;83.65
71109;BME280;59614;51.012;-1.648;2023-06-22T08:11:25;101011.66;;;19.51;82.76
71109;BME280;59614;51.012;-1.648;2023-06-22T08:13:51;101013.66;;;20.06;84.67
71109;BME280;59614;51.012;-1.648;2023-06-22T08:16:16;101009.09;;;19.69;82.07
71109;BME280;59614;51.012;-1.648;2023-06-22T08:18:42;101014.06;;;20.35;83.97
71109;BME280;59614;51.012;-1.648;2023-06-22T08:21:07;101006.84;;;20.18;79.43
71109;BME280;59614;51.012;-1.648;2023-06-22T08:23:33;101009.00;;;20.48;81.66
71109;BME280;59614;51.012;-1.648;2023-06-22T08:25:58;101021.94;;;20.58;78.05
71109;BME280;59614;51.012;-1.648;2023-06-22T08:28:24;101018.09;;;20.82;80.02
71109;BME280;59614;51.012;-1.648;2023-06-22T08:30:49;101017.91;;;20.86;79.37
71109;BME280;59614;51.012;-1.648;2023-06-22T08:33:14;101006.97;;;21.08;77.76
71109;BME280;59614;51.012;-1.648;2023-06-22T08:35:40;101009.66;;;21.43;78.87
71109;BME280;59614;51.012;-1.648;2023-06-22T08:38:05;101018.00;;;21.37;77.12
71109;BME280;59614;51.012;-1.648;2023-06-22T08:40:30;101009.34;;;21.32;77.30
71109;BME280;59614;51.012;-1.648;2023-06-22T08:42:56;101015.25;;;21.21;76.20
71109;BME280;59614;51.012;-1.648;2023-06-22T08:45:21;101009.66;;;22.10;73.05
71109;BME280;59614;51.012;-1.648;2023-06-22T08:47:47;101015.03;;;23.05;69.68
71109;BME280;59614;51.012;-1.648;2023-06-22T08:50:13;101010.66;;;23.18;69.09
71109;BME280;59614;51.012;-1.648;2023-06-22T08:52:39;101009.78;;;23.91;68.38
71109;BME280;59614;51.012;-1.648;2023-06-22T08:55:08;101012.09;;;23.40;68.21
71109;BME280;59614;51.012;-1.648;2023-06-22T08:57:34;101013.09;;;23.23;70.79
71109;BME280;59614;51.012;-1.648;2023-06-22T09:00:03;101007.38;;;23.58;70.79
71109;BME280;59614;51.012;-1.648;2023-06-22T09:02:30;101018.75;;;23.18;69.99
71109;BME280;59614;51.012;-1.648;2023-06-22T09:04:57;101015.53;;;23.27;68.84
71109;BME280;59614;51.012;-1.648;2023-06-22T09:07:23;101015.56;;;24.14;68.76
71109;BME280;59614;51.012;-1.648;2023-06-22T09:09:50;101010.63;;;24.21;64.95
71109;BME280;59614;51.012;-1.648;2023-06-22T09:12:16;101007.34;;;24.58;65.70
71109;BME280;59614;51.012;-1.648;2023-06-22T09:14:41;101017.97;;;24.88;65.11
71109;BME280;59614;51.012;-1.648;2023-06-22T09:17:07;101016.53;;;24.82;62.39
71109;BME280;59614;51.012;-1.648;2023-06-22T09:19:32;101013.41;;;25.16;64.25
71109;BME280;59614;51.012;-1.648;2023-06-22T09:21:58;101015.09;;;25.04;61.48
71109;BME280;59614;51.012;-1.648;2023-06-22T09:24:23;101021.84;;;25.37;63.84
71109;BME280;59614;51.012;-1.648;2023-06-22T09:26:49;101016.16;;;25.68;61.87
71109;BME280;59614;51.012;-1.648;2023-06-22T09:29:14;101006.66;;;24.96;60.73
71109;BME280;59614;51.012;-1.648;2023-06-22T09:31:39;101012.19;;;25.07;59.66
71109;BME280;59614;51.012;-1.648;2023-06-22T09:34:05;101008.88;;;24.76;61.33
71109;BME280;59614;51.012;-1.648;2023-06-22T09:36:30;101008.78;;;24.91;60.92
71109;BME280;59614;51.012;-1.648;2023-06-22T09:38:55;100999.19;;;25.53;63.33
71109;BME280;59614;51.012;-1.648;2023-06-22T09:41:24;101003.28;;;25.71;60.70
71109;BME280;59614;51.012;-1.648;2023-06-22T09:43:49;100998.56;;;26.49;61.31
71109;BME280;59614;51.012;-1.648;2023-06-22T09:46:15;101003.56;;;26.91;58.11
71109;BME280;59614;51.012;-1.648;2023-06-22T09:48:41;101016.97;;;27.28;59.11
71109;BME280;59614;51.012;-1.648;2023-06-22T09:51:06;101014.28;;;26.44;59.90
71109;BME280;59614;51.012;-1.648;2023-06-22T09:53:32;101019.31;;;25.08;59.86
71109;BME280;59614;51.012;-1.648;2023-06-22T09:55:57;101017.56;;;25.61;59.27
71109;BME280;59614;51.012;-1.648;2023-06-22T09:58:23;101017.19;;;26.17;58.37
71109;BME280;59614;51.012;-1.648;2023-06-22T10:00:48;101013.50;;;25.92;57.81
71109;BME280;59614;51.012;-1.648;2023-06-22T10:03:13;101024.13;;;26.70;59.36
71109;BME280;59614;51.012;-1.648;2023-06-22T10:05:39;101024.22;;;27.17;57.91
71109;BME280;59614;51.012;-1.648;2023-06-22T10:08:04;101022.78;;;27.35;58.41
71109;BME280;59614;51.012;-1.648;2023-06-22T10:10:30;101013.38;;;27.52;55.06
71109;BME280;59614;51.012;-1.648;2023-06-22T10:12:57;101012.88;;;27.58;56.85
71109;BME280;59614;51.012;-1.648;2023-06-22T10:15:22;101005.75;;;27.92;55.58
71109;BME280;59614;51.012;-1.648;2023-06-22T10:17:48;101011.78;;;27.84;53.06
71109;BME280;59614;51.012;-1.648;2023-06-22T10:20:13;101015.09;;;27.99;49.85
71109;BME280;59614;51.012;-1.648;2023-06-22T10:22:40;101014.59;;;27.71;52.05
71109;BME280;59614;51.012;-1.648;2023-06-22T10:25:07;101022.59;;;26.54;51.94
71109;BME280;59614;51.012;-1.648;2023-06-22T10:27:33;101019.97;;;26.02;55.37
71109;BME280;59614;51.012;-1.648;2023-06-22T10:29:58;101022.25;;;26.21;54.10
71109;BME280;59614;51.012;-1.648;2023-06-22T10:32:24;101012.69;;;26.90;51.75
71109;BME280;59614;51.012;-1.648;2023-06-22T10:34:49;101017.66;;;27.55;52.32
71109;BME280;59614;51.012;-1.648;2023-06-22T10:37:15;101015.25;;;27.27;51.48
71109;BME280;59614;51.012;-1.648;2023-06-22T10:39:40;101012.38;;;26.58;56.29
71109;BME280;59614;51.012;-1.648;2023-06-22T10:42:05;101015.13;;;26.08;54.01
71109;BME280;59614;51.012;-1.648;2023-06-22T10:44:31;101020.31;;;25.20;55.32
71109;BME280;59614;51.012;-1.648;2023-06-22T10:46:56;101009.69;;;26.20;52.26
71109;BME280;59614;51.012;-1.648;2023-06-22T10:49:22;101009.59;;;26.71;50.38
71109;BME280;59614;51.012;-1.648;2023-06-22T10:51:47;101005.38;;;26.18;50.19
71109;BME280;59614;51.012;-1.648;2023-06-22T10:54:12;101012.41;;;27.18;48.67
71109;BME280;59614;51.012;-1.648;2023-06-22T10:56:39;101006.19;;;26.93;48.75
71109;BME280;59614;51.012;-1.648;2023-06-22T10:59:05;101004.75;;;26.63;47.76
71109;BME280;59614;51.012;-1.648;2023-06-22T11:01:30;101017.13;;;27.38;46.46
71109;BME280;59614;51.012;-1.648;2023-06-22T11:03:59;101014.34;;;27.97;46.59
71109;BME280;59614;51.012;-1.648;2023-06-22T11:06:24;101013.00;;;28.69;47.30
71109;BME280;59614;51.012;-1.648;2023-06-22T11:08:49;100999.34;;;29.86;48.30
71109;BME280;59614;51.012;-1.648;2023-06-22T11:11:15;101000.94;;;29.89;48.85
71109;BME280;59614;51.012;-1.648;2023-06-22T11:13:42;101004.91;;;28.58;49.64
71109;BME280;59614;51.012;-1.648;2023-06-22T11:16:09;101005.19;;;26.94;46.49
71109;BME280;59614;51.012;-1.648;2023-06-22T11:18:34;101004.03;;;28.13;47.18
71109;BME280;59614;51.012;-1.648;2023-06-22T11:21:00;101004.00;;;29.01;45.51
71109;BME280;59614;51.012;-1.648;2023-06-22T11:23:25;101006.44;;;27.48;44.79
71109;BME280;59614;51.012;-1.648;2023-06-22T11:25:52;101004.75;;;28.15;44.02
71109;BME280;59614;51.012;-1.648;2023-06-22T11:28:18;100995.97;;;28.23;43.43
71109;BME280;59614;51.012;-1.648;2023-06-22T11:30:43;101006.72;;;27.56;45.84
71109;BME280;59614;51.012;-1.648;2023-06-22T11:33:08;101003.53;;;28.08;45.64
71109;BME280;59614;51.012;-1.648;2023-06-22T11:35:34;100996.47;;;28.72;46.21
71109;BME280;59614;51.012;-1.648;2023-06-22T11:37:59;101003.78;;;28.60;45.42
71109;BME280;59614;51.012;-1.648;2023-06-22T11:40:25;100992.88;;;29.04;43.80
71109;BME280;59614;51.012;-1.648;2023-06-22T11:42:50;100988.53;;;29.65;42.15
71109;BME280;59614;51.012;-1.648;2023-06-22T11:45:15;100985.94;;;30.75;42.36
71109;BME280;59614;51.012;-1.648;2023-06-22T11:47:42;100984.59;;;29.27;42.39
71109;BME280;59614;51.012;-1.648;2023-06-22T11:50:08;100994.38;;;28.20;46.30
71109;BME280;59614;51.012;-1.648;2023-06-22T11:52:34;100999.66;;;29.10;46.20
71109;BME280;59614;51.012;-1.648;2023-06-22T11:55:01;100991.97;;;29.98;43.14
71109;BME280;59614;51.012;-1.648;2023-06-22T11:57:28;100991.03;;;29.88;42.74
71109;BME280;59614;51.012;-1.648;2023-06-22T11:59:54;100985.44;;;30.30;43.98
71109;BME280;59614;51.012;-1.648;2023-06-22T12:02:19;100975.38;;;30.01;41.40
71109;BME280;59614;51.012;-1.648;2023-06-22T12:04:44;100969.34;;;30.68;39.77
71109;BME280;59614;51.012;-1.648;2023-06-22T12:07:10;100975.28;;;31.31;42.56
71109;BME280;59614;51.012;-1.648;2023-06-22T12:09:35;100981.66;;;30.02;40.01
71109;BME280;59614;51.012;-1.648;2023-06-22T12:12:00;100975.00;;;28.69;43.10
71109;BME280;59614;51.012;-1.648;2023-06-22T12:14:26;100966.28;;;28.54;43.31
71109;BME280;59614;51.012;-1.648;2023-06-22T12:16:51;100969.72;;;28.24;44.06
71109;BME280;59614;51.012;-1.648;2023-06-22T12:19:17;100972.84;;;29.05;43.05
71109;BME280;59614;51.012;-1.648;2023-06-22T12:21:42;100956.94;;;30.15;43.88
71109;BME280;59614;51.012;-1.648;2023-06-22T12:24:10;100958.59;;;29.96;40.11
71109;BME280;59614;51.012;-1.648;2023-06-22T12:26:35;100958.34;;;30.09;40.17
71109;BME280;59614;51.012;-1.648;2023-06-22T12:29:01;100963.56;;;31.01;39.14
71109;BME280;59614;51.012;-1.648;2023-06-22T12:31:26;100959.81;;;31.59;42.43
71109;BME280;59614;51.012;-1.648;2023-06-22T12:33:52;100954.84;;;32.56;42.69
71109;BME280;59614;51.012;-1.648;2023-06-22T12:36:17;100953.03;;;32.65;37.32
71109;BME280;59614;51.012;-1.648;2023-06-22T12:38:42;100958.34;;;31.75;37.21
71109;BME280;59614;51.012;-1.648;2023-06-22T12:41:08;100962.78;;;28.75;41.59
71109;BME280;59614;51.012;-1.648;2023-06-22T12:43:33;100959.16;;;27.64;43.70